sensor_id;sensor_type;location;lat;lon;timestamp;pressure;altitude;pressure_sealevel;temperature;humidity
74975;BME280;68459;50.836;19.138;2023-07-09T00:00:29;99015.72;;;16.48;58.33
74975;BME280;68459;50.836;19.138;2023-07-09T00:03:52;99010.84;;;16.50;58.83
74975;BME280;68459;50.836;19.138;2023-07-09T00:07:02;99014.94;;;16.53;58.74
74975;BME280;68459;50.836;19.138;2023-07-09T00:10:16;99012.34;;;16.41;59.07
74975;BME280;68459;50.836;19.138;2023-07-09T00:13:20;99004.31;;;16.29;59.12
74975;BME280;68459;50.836;19.138;2023-07-09T00:16:25;99012.41;;;16.24;59.46
74975;BME280;68459;50.836;19.138;2023-07-09T00:19:29;99012.84;;;16.16;59.38
74975;BME280;68459;50.836;19.138;2023-07-09T00:22:32;99010.06;;;16.11;59.72
74975;BME280;68459;50.836;19.138;2023-07-09T00:25:37;99007.00;;;16.08;60.14
74975;BME280;68459;50.836;19.138;2023-07-09T00:28:41;98999.59;;;16.03;60.18
74975;BME280;68459;50.836;19.138;2023-07-09T00:31:45;99002.50;;;15.96;60.39
74975;BME280;68459;50.836;19.138;2023-07-09T00:34:50;98997.81;;;15.92;60.46
74975;BME280;68459;50.836;19.138;2023-07-09T00:37:55;98998.78;;;15.86;60.89
74975;BME280;68459;50.836;19.138;2023-07-09T00:41:11;98993.44;;;15.74;61.35
74975;BME280;68459;50.836;19.138;2023-07-09T00:44:24;98993.03;;;15.65;62.04
74975;BME280;68459;50.836;19.138;2023-07-09T00:47:42;98992.47;;;15.63;62.12
74975;BME280;68459;50.836;19.138;2023-07-09T00:50:49;98982.16;;;15.65;61.68
74975;BME280;68459;50.836;19.138;2023-07-09T00:53:58;98983.81;;;15.66;61.78
74975;BME280;68459;50.836;19.138;2023-07-09T00:57:13;98983.81;;;15.66;61.99
74975;BME280;68459;50.836;19.138;2023-07-09T01:00:19;98978.03;;;15.63;61.73
74975;BME280;68459;50.836;19.138;2023-07-09T01:03:27;98985.38;;;15.62;62.39
74975;BME280;68459;50.836;19.138;2023-07-09T01:06:37;98973.34;;;15.58;62.32
74975;BME280;68459;50.836;19.138;2023-07-09T01:09:44;98973.84;;;15.55;62.42
74975;BME280;68459;50.836;19.138;2023-07-09T01:12:49;98982.47;;;15.52;62.21
74975;BME280;68459;50.836;19.138;2023-07-09T01:15:54;98982.31;;;15.42;62.54
74975;BME280;68459;50.836;19.138;2023-07-09T01:18:58;98984.47;;;15.40;62.86
74975;BME280;68459;50.836;19.138;2023-07-09T01:22:04;98988.81;;;15.41;63.11
74975;BME280;68459;50.836;19.138;2023-07-09T01:25:09;98989.94;;;15.45;62.66
74975;BME280;68459;50.836;19.138;2023-07-09T01:28:13;98992.66;;;15.45;62.74
74975;BME280;68459;50.836;19.138;2023-07-09T01:31:19;98991.53;;;15.41;63.08
74975;BME280;68459;50.836;19.138;2023-07-09T01:34:24;98999.94;;;15.40;63.38
74975;BME280;68459;50.836;19.138;2023-07-09T01:37:29;98997.47;;;15.38;63.35
74975;BME280;68459;50.836;19.138;2023-07-09T01:40:32;98999.69;;;15.41;63.37
74975;BME280;68459;50.836;19.138;2023-07-09T01:43:41;99000.44;;;15.37;63.62
74975;BME280;68459;50.836;19.138;2023-07-09T01:46:45;98999.19;;;15.27;63.69
74975;BME280;68459;50.836;19.138;2023-07-09T01:49:51;99000.41;;;15.20;63.74
74975;BME280;68459;50.836;19.138;2023-07-09T01:53:03;99004.00;;;15.09;64.20
74975;BME280;68459;50.836;19.138;2023-07-09T01:56:07;99005.00;;;15.03;64.24
74975;BME280;68459;50.836;19.138;2023-07-09T01:59:11;99009.25;;;14.98;64.59
74975;BME280;68459;50.836;19.138;2023-07-09T02:02:15;99008.69;;;14.96;64.81
74975;BME280;68459;50.836;19.138;2023-07-09T02:05:21;99008.69;;;14.96;64.51
74975;BME280;68459;50.836;19.138;2023-07-09T02:08:28;99010.91;;;15.00;64.68
74975;BME280;68459;50.836;19.138;2023-07-09T02:11:33;99004.31;;;14.95;64.64
74975;BME280;68459;50.836;19.138;2023-07-09T02:14:37;98999.88;;;14.89;64.51
74975;BME280;68459;50.836;19.138;2023-07-09T02:17:41;99006.16;;;14.78;64.52
74975;BME280;68459;50.836;19.138;2023-07-09T02:20:46;99004.75;;;14.76;65.13
74975;BME280;68459;50.836;19.138;2023-07-09T02:23:50;99009.44;;;14.80;65.07
74975;BME280;68459;50.836;19.138;2023-07-09T02:26:56;99010.03;;;14.82;65.02
74975;BME280;68459;50.836;19.138;2023-07-09T02:30:01;99007.31;;;14.82;65.00
74975;BME280;68459;50.836;19.138;2023-07-09T02:33:05;99017.59;;;14.80;65.08
74975;BME280;68459;50.836;19.138;2023-07-09T02:36:08;99011.56;;;14.78;65.02
74975;BME280;68459;50.836;19.138;2023-07-09T02:39:14;99011.56;;;14.78;65.10
74975;BME280;68459;50.836;19.138;2023-07-09T02:42:19;99010.50;;;14.79;64.86
74975;BME280;68459;50.836;19.138;2023-07-09T02:45:23;99006.06;;;14.73;65.15
74975;BME280;68459;50.836;19.138;2023-07-09T02:48:27;99005.94;;;14.68;65.04
74975;BME280;68459;50.836;19.138;2023-07-09T02:51:31;99011.31;;;14.63;65.21
74975;BME280;68459;50.836;19.138;2023-07-09T02:54:37;99010.13;;;14.59;65.60
74975;BME280;68459;50.836;19.138;2023-07-09T02:57:41;99017.69;;;14.57;65.84
74975;BME280;68459;50.836;19.138;2023-07-09T03:00:44;99010.59;;;14.56;65.71
74975;BME280;68459;50.836;19.138;2023-07-09T03:03:55;99018.28;;;14.59;65.71
74975;BME280;68459;50.836;19.138;2023-07-09T03:07:02;99017.78;;;14.62;65.58
74975;BME280;68459;50.836;19.138;2023-07-09T03:10:08;99016.22;;;14.66;65.73
74975;BME280;68459;50.836;19.138;2023-07-09T03:13:12;99018.22;;;14.71;65.39
74975;BME280;68459;50.836;19.138;2023-07-09T03:16:16;99018.47;;;14.69;65.76
74975;BME280;68459;50.836;19.138;2023-07-09T03:19:21;99023.66;;;14.71;65.49
74975;BME280;68459;50.836;19.138;2023-07-09T03:22:25;99016.81;;;14.68;65.64
74975;BME280;68459;50.836;19.138;2023-07-09T03:25:30;99016.81;;;14.68;65.91
74975;BME280;68459;50.836;19.138;2023-07-09T03:28:34;99015.75;;;14.69;65.70
74975;BME280;68459;50.836;19.138;2023-07-09T03:31:37;99027.44;;;14.70;65.99
74975;BME280;68459;50.836;19.138;2023-07-09T03:34:41;99020.22;;;14.75;65.84
74975;BME280;68459;50.836;19.138;2023-07-09T03:37:45;99025.25;;;14.83;65.73
74975;BME280;68459;50.836;19.138;2023-07-09T03:40:51;99019.94;;;14.88;65.68
74975;BME280;68459;50.836;19.138;2023-07-09T03:43:55;99025.97;;;14.90;65.84
74975;BME280;68459;50.836;19.138;2023-07-09T03:46:59;99031.47;;;14.95;65.83
74975;BME280;68459;50.836;19.138;2023-07-09T03:50:03;99036.19;;;15.00;65.86
74975;BME280;68459;50.836;19.138;2023-07-09T03:53:08;99024.56;;;15.05;66.27
74975;BME280;68459;50.836;19.138;2023-07-09T03:56:13;99032.00;;;15.09;65.69
74975;BME280;68459;50.836;19.138;2023-07-09T03:59:16;99030.22;;;15.15;65.35
74975;BME280;68459;50.836;19.138;2023-07-09T04:02:20;99033.94;;;15.25;65.39
74975;BME280;68459;50.836;19.138;2023-07-09T04:05:24;99027.78;;;15.30;65.24
74975;BME280;68459;50.836;19.138;2023-07-09T04:08:28;99030.91;;;15.39;65.44
74975;BME280;68459;50.836;19.138;2023-07-09T04:11:33;99031.56;;;15.46;65.17
74975;BME280;68459;50.836;19.138;2023-07-09T04:14:37;99029.75;;;15.51;65.41
74975;BME280;68459;50.836;19.138;2023-07-09T04:17:42;99035.88;;;15.58;65.17
74975;BME280;68459;50.836;19.138;2023-07-09T04:20:48;99027.66;;;15.70;65.19
74975;BME280;68459;50.836;19.138;2023-07-09T04:23:52;99023.25;;;15.86;64.68
74975;BME280;68459;50.836;19.138;2023-07-09T04:26:58;99023.50;;;16.01;64.29
74975;BME280;68459;50.836;19.138;2023-07-09T04:30:07;99024.31;;;16.18;63.86
74975;BME280;68459;50.836;19.138;2023-07-09T04:33:12;99028.31;;;16.32;63.52
74975;BME280;68459;50.836;19.138;2023-07-09T04:36:19;99027.69;;;16.47;63.70
74975;BME280;68459;50.836;19.138;2023-07-09T04:39:23;99023.50;;;16.61;63.45
74975;BME280;68459;50.836;19.138;2023-07-09T04:42:28;99028.34;;;16.76;63.12
74975;BME280;68459;50.836;19.138;2023-07-09T04:45:32;99038.63;;;16.91;62.46
74975;BME280;68459;50.836;19.138;2023-07-09T04:48:35;99039.00;;;17.04;61.95
74975;BME280;68459;50.836;19.138;2023-07-09T04:51:40;99038.66;;;17.23;61.67
74975;BME280;68459;50.836;19.138;2023-07-09T04:54:44;99039.97;;;17.42;61.28
74975;BME280;68459;50.836;19.138;2023-07-09T04:57:49;99040.63;;;17.59;60.73
74975;BME280;68459;50.836;19.138;2023-07-09T05:00:56;99041.94;;;17.78;60.38
74975;BME280;68459;50.836;19.138;2023-07-09T05:04:00;99044.53;;;17.95;60.19
74975;BME280;68459;50.836;19.138;2023-07-09T05:07:04;99039.69;;;18.12;59.51
74975;BME280;68459;50.836;19.138;2023-07-09T05:10:09;99036.00;;;18.29;58.80
74975;BME280;68459;50.836;19.138;2023-07-09T05:13:15;99050.03;;;18.47;58.53
74975;BME280;68459;50.836;19.138;2023-07-09T05:16:19;99047.41;;;18.63;58.15
74975;BME280;68459;50.836;19.138;2023-07-09T05:19:23;99049.91;;;18.79;57.82
74975;BME280;68459;50.836;19.138;2023-07-09T05:22:27;99059.00;;;18.95;57.09
74975;BME280;68459;50.836;19.138;2023-07-09T05:25:30;99053.31;;;19.12;56.87
74975;BME280;68459;50.836;19.138;2023-07-09T05:28:35;99047.63;;;19.29;56.48
74975;BME280;68459;50.836;19.138;2023-07-09T05:31:39;99053.16;;;19.49;55.68
74975;BME280;68459;50.836;19.138;2023-07-09T05:34:44;99056.72;;;19.65;55.03
74975;BME280;68459;50.836;19.138;2023-07-09T05:37:48;99054.81;;;19.80;54.42
74975;BME280;68459;50.836;19.138;2023-07-09T05:41:00;99053.72;;;19.97;54.55
74975;BME280;68459;50.836;19.138;2023-07-09T05:44:06;99059.16;;;20.12;53.68
74975;BME280;68459;50.836;19.138;2023-07-09T05:47:11;99054.22;;;20.29;53.04
74975;BME280;68459;50.836;19.138;2023-07-09T05:50:14;99053.66;;;20.47;52.80
74975;BME280;68459;50.836;19.138;2023-07-09T05:53:18;99056.34;;;20.62;52.17
74975;BME280;68459;50.836;19.138;2023-07-09T05:56:22;99054.66;;;20.77;51.83
74975;BME280;68459;50.836;19.138;2023-07-09T05:59:26;99054.88;;;20.90;51.25
74975;BME280;68459;50.836;19.138;2023-07-09T06:02:30;99050.41;;;21.05;51.14
74975;BME280;68459;50.836;19.138;2023-07-09T06:05:34;99053.66;;;21.17;50.70
74975;BME280;68459;50.836;19.138;2023-07-09T06:08:38;99058.28;;;21.26;50.32
74975;BME280;68459;50.836;19.138;2023-07-09T06:11:41;99060.94;;;21.37;49.67
74975;BME280;68459;50.836;19.138;2023-07-09T06:14:47;99058.69;;;21.49;49.72
74975;BME280;68459;50.836;19.138;2023-07-09T06:17:50;99058.59;;;21.59;49.31
74975;BME280;68459;50.836;19.138;2023-07-09T06:20:56;99058.53;;;21.69;49.17
74975;BME280;68459;50.836;19.138;2023-07-09T06:24:00;99060.91;;;21.81;48.83
74975;BME280;68459;50.836;19.138;2023-07-09T06:27:04;99064.44;;;21.86;48.58
74975;BME280;68459;50.836;19.138;2023-07-09T06:30:10;99064.41;;;21.91;48.41
74975;BME280;68459;50.836;19.138;2023-07-09T06:33:15;99071.47;;;22.02;48.06
74975;BME280;68459;50.836;19.138;2023-07-09T06:36:19;99071.38;;;22.13;47.91
74975;BME280;68459;50.836;19.138;2023-07-09T06:39:23;99062.81;;;22.19;47.78
74975;BME280;68459;50.836;19.138;2023-07-09T06:42:27;99065.72;;;22.28;47.54
74975;BME280;68459;50.836;19.138;2023-07-09T06:45:49;99067.25;;;22.39;47.31
74975;BME280;68459;50.836;19.138;2023-07-09T06:48:55;99065.00;;;22.46;47.19
74975;BME280;68459;50.836;19.138;2023-07-09T06:52:00;99068.22;;;22.53;46.97
74975;BME280;68459;50.836;19.138;2023-07-09T06:55:06;99069.22;;;22.62;46.77
74975;BME280;68459;50.836;19.138;2023-07-09T06:58:11;99064.44;;;22.73;46.83
74975;BME280;68459;50.836;19.138;2023-07-09T07:01:17;99065.69;;;22.86;46.42
74975;BME280;68459;50.836;19.138;2023-07-09T07:04:25;99068.78;;;23.03;46.25
74975;BME280;68459;50.836;19.138;2023-07-09T07:07:29;99060.66;;;23.12;46.21
74975;BME280;68459;50.836;19.138;2023-07-09T07:10:33;99060.81;;;23.20;45.94
74975;BME280;68459;50.836;19.138;2023-07-09T07:13:38;99060.38;;;23.32;45.61
74975;BME280;68459;50.836;19.138;2023-07-09T07:16:44;99061.78;;;23.48;44.96
74975;BME280;68459;50.836;19.138;2023-07-09T07:19:49;99063.31;;;23.59;44.61
74975;BME280;68459;50.836;19.138;2023-07-09T07:22:53;99060.59;;;23.73;44.36
74975;BME280;68459;50.836;19.138;2023-07-09T07:25:57;99067.91;;;23.83;44.11
74975;BME280;68459;50.836;19.138;2023-07-09T07:29:01;99066.91;;;23.92;43.47
74975;BME280;68459;50.836;19.138;2023-07-09T07:32:07;99061.00;;;23.99;43.38
74975;BME280;68459;50.836;19.138;2023-07-09T07:35:12;99056.84;;;24.01;43.19
74975;BME280;68459;50.836;19.138;2023-07-09T07:38:16;99060.41;;;24.02;43.12
74975;BME280;68459;50.836;19.138;2023-07-09T07:41:20;99066.16;;;24.05;43.17
74975;BME280;68459;50.836;19.138;2023-07-09T07:44:23;99059.22;;;24.08;43.15
74975;BME280;68459;50.836;19.138;2023-07-09T07:47:29;99059.63;;;24.15;42.64
74975;BME280;68459;50.836;19.138;2023-07-09T07:50:32;99071.31;;;24.26;42.41
74975;BME280;68459;50.836;19.138;2023-07-09T07:53:36;99072.56;;;24.33;42.30
74975;BME280;68459;50.836;19.138;2023-07-09T07:56:40;99069.72;;;24.38;42.11
74975;BME280;68459;50.836;19.138;2023-07-09T07:59:44;99061.34;;;24.43;41.67
74975;BME280;68459;50.836;19.138;2023-07-09T08:02:49;99067.59;;;24.49;41.92
74975;BME280;68459;50.836;19.138;2023-07-09T08:05:53;99067.47;;;24.54;41.65
74975;BME280;68459;50.836;19.138;2023-07-09T08:08:57;99072.31;;;24.62;41.37
74975;BME280;68459;50.836;19.138;2023-07-09T08:12:00;99064.44;;;24.69;41.03
74975;BME280;68459;50.836;19.138;2023-07-09T08:15:11;99063.72;;;24.77;40.64
74975;BME280;68459;50.836;19.138;2023-07-09T08:18:16;99064.03;;;24.90;40.00
74975;BME280;68459;50.836;19.138;2023-07-09T08:21:20;99062.09;;;25.04;39.60
74975;BME280;68459;50.836;19.138;2023-07-09T08:24:23;99062.72;;;25.14;39.13
74975;BME280;68459;50.836;19.138;2023-07-09T08:27:27;99063.41;;;25.20;39.60
74975;BME280;68459;50.836;19.138;2023-07-09T08:30:31;99057.25;;;25.23;39.52
74975;BME280;68459;50.836;19.138;2023-07-09T08:33:35;99066.25;;;25.29;39.00
74975;BME280;68459;50.836;19.138;2023-07-09T08:36:39;99050.06;;;25.36;38.83
74975;BME280;68459;50.836;19.138;2023-07-09T08:39:43;99055.78;;;25.39;38.71
74975;BME280;68459;50.836;19.138;2023-07-09T08:42:53;99055.25;;;25.51;37.89
74975;BME280;68459;50.836;19.138;2023-07-09T08:46:16;99056.13;;;25.60;37.27
74975;BME280;68459;50.836;19.138;2023-07-09T08:49:34;99061.78;;;25.69;36.99
74975;BME280;68459;50.836;19.138;2023-07-09T08:52:42;99047.09;;;25.82;37.19
74975;BME280;68459;50.836;19.138;2023-07-09T08:55:49;99052.34;;;25.92;37.14
74975;BME280;68459;50.836;19.138;2023-07-09T08:58:55;99048.19;;;26.03;37.15
74975;BME280;68459;50.836;19.138;2023-07-09T09:02:00;99045.78;;;26.10;37.31
74975;BME280;68459;50.836;19.138;2023-07-09T09:05:11;99053.66;;;26.17;37.54
74975;BME280;68459;50.836;19.138;2023-07-09T09:08:27;99051.97;;;26.30;37.59
74975;BME280;68459;50.836;19.138;2023-07-09T09:11:43;99053.19;;;26.46;37.19
74975;BME280;68459;50.836;19.138;2023-07-09T09:14:53;99054.88;;;26.64;36.26
74975;BME280;68459;50.836;19.138;2023-07-09T09:18:20;99041.91;;;26.82;34.87
74975;BME280;68459;50.836;19.138;2023-07-09T09:21:29;99053.69;;;26.87;34.89
74975;BME280;68459;50.836;19.138;2023-07-09T09:24:38;99041.81;;;26.95;35.13
74975;BME280;68459;50.836;19.138;2023-07-09T09:27:53;99050.97;;;27.05;34.72
74975;BME280;68459;50.836;19.138;2023-07-09T09:30:56;99064.03;;;27.13;34.72
74975;BME280;68459;50.836;19.138;2023-07-09T09:34:00;99055.91;;;27.16;34.36
74975;BME280;68459;50.836;19.138;2023-07-09T09:37:10;99051.19;;;27.25;32.64
74975;BME280;68459;50.836;19.138;2023-07-09T09:40:14;99047.13;;;27.40;33.94
74975;BME280;68459;50.836;19.138;2023-07-09T09:43:20;99054.31;;;27.58;34.24
74975;BME280;68459;50.836;19.138;2023-07-09T09:46:27;99059.56;;;27.69;33.19
74975;BME280;68459;50.836;19.138;2023-07-09T09:49:38;99045.53;;;27.56;33.49
74975;BME280;68459;50.836;19.138;2023-07-09T09:52:45;99045.66;;;27.51;33.51
74975;BME280;68459;50.836;19.138;2023-07-09T09:55:51;99042.59;;;27.61;33.51
74975;BME280;68459;50.836;19.138;2023-07-09T09:58:57;99044.38;;;27.75;33.12
74975;BME280;68459;50.836;19.138;2023-07-09T10:02:05;99049.91;;;27.83;33.12
74975;BME280;68459;50.836;19.138;2023-07-09T10:05:31;99039.47;;;27.89;32.74
74975;BME280;68459;50.836;19.138;2023-07-09T10:08:42;99047.13;;;28.00;32.21
74975;BME280;68459;50.836;19.138;2023-07-09T10:11:58;99051.03;;;28.08;31.74
74975;BME280;68459;50.836;19.138;2023-07-09T10:15:16;99050.72;;;28.18;31.12
74975;BME280;68459;50.836;19.138;2023-07-09T10:18:35;99044.84;;;28.20;31.89
74975;BME280;68459;50.836;19.138;2023-07-09T10:21:47;99049.53;;;28.28;31.72
74975;BME280;68459;50.836;19.138;2023-07-09T10:25:04;99053.25;;;28.41;31.66
74975;BME280;68459;50.836;19.138;2023-07-09T10:28:50;99069.03;;;28.57;29.88
74975;BME280;68459;50.836;19.138;2023-07-09T10:32:11;99044.09;;;28.78;29.65
74975;BME280;68459;50.836;19.138;2023-07-09T10:35:26;99044.63;;;28.80;29.98
74975;BME280;68459;50.836;19.138;2023-07-09T10:38:44;99048.41;;;28.67;30.24
74975;BME280;68459;50.836;19.138;2023-07-09T10:41:57;99055.66;;;28.51;30.64
74975;BME280;68459;50.836;19.138;2023-07-09T10:45:09;99052.09;;;28.42;30.69
74975;BME280;68459;50.836;19.138;2023-07-09T10:48:17;99046.50;;;28.50;30.40
74975;BME280;68459;50.836;19.138;2023-07-09T10:51:38;99046.97;;;28.61;29.92
74975;BME280;68459;50.836;19.138;2023-07-09T10:54:53;99029.41;;;28.78;29.43
74975;BME280;68459;50.836;19.138;2023-07-09T10:58:03;99049.78;;;28.90;28.16
74975;BME280;68459;50.836;19.138;2023-07-09T11:01:11;99044.81;;;29.04;29.52
74975;BME280;68459;50.836;19.138;2023-07-09T11:04:24;99035.22;;;29.23;29.34
74975;BME280;68459;50.836;19.138;2023-07-09T11:07:34;99047.19;;;29.44;28.67
74975;BME280;68459;50.836;19.138;2023-07-09T11:10:46;99043.41;;;29.49;28.40
74975;BME280;68459;50.836;19.138;2023-07-09T11:13:59;99048.63;;;29.50;28.09
74975;BME280;68459;50.836;19.138;2023-07-09T11:17:12;99045.28;;;29.57;28.34
74975;BME280;68459;50.836;19.138;2023-07-09T11:20:21;99044.75;;;29.63;27.78
74975;BME280;68459;50.836;19.138;2023-07-09T11:23:38;99049.75;;;29.70;26.88
74975;BME280;68459;50.836;19.138;2023-07-09T11:26:47;99045.81;;;29.71;26.90
74975;BME280;68459;50.836;19.138;2023-07-09T11:29:59;99039.81;;;29.69;27.61
74975;BME280;68459;50.836;19.138;2023-07-09T11:33:04;99038.09;;;29.76;27.72
74975;BME280;68459;50.836;19.138;2023-07-09T11:36:29;99038.34;;;29.84;27.27
74975;BME280;68459;50.836;19.138;2023-07-09T11:39:43;99039.97;;;29.85;26.93
74975;BME280;68459;50.836;19.138;2023-07-09T11:42:52;99033.19;;;29.94;27.37
74975;BME280;68459;50.836;19.138;2023-07-09T11:46:06;99017.47;;;30.10;27.14
74975;BME280;68459;50.836;19.138;2023-07-09T11:49:30;99026.59;;;30.32;26.89
74975;BME280;68459;50.836;19.138;2023-07-09T11:52:39;99032.38;;;30.39;26.24
74975;BME280;68459;50.836;19.138;2023-07-09T11:55:46;99029.63;;;30.51;26.57
74975;BME280;68459;50.836;19.138;2023-07-09T11:58:50;99026.44;;;30.61;26.82
74975;BME280;68459;50.836;19.138;2023-07-09T12:01:56;99026.31;;;30.70;26.76
74975;BME280;68459;50.836;19.138;2023-07-09T12:05:04;99026.91;;;30.88;26.72
74975;BME280;68459;50.836;19.138;2023-07-09T12:08:10;99014.13;;;30.99;26.20
74975;BME280;68459;50.836;19.138;2023-07-09T12:11:22;99010.41;;;30.95;25.17
74975;BME280;68459;50.836;19.138;2023-07-09T12:14:26;99007.38;;;31.00;25.62
74975;BME280;68459;50.836;19.138;2023-07-09T12:17:31;99023.31;;;31.11;25.63
74975;BME280;68459;50.836;19.138;2023-07-09T12:20:37;99001.00;;;31.11;25.18
74975;BME280;68459;50.836;19.138;2023-07-09T12:23:41;99005.97;;;31.18;25.02
74975;BME280;68459;50.836;19.138;2023-07-09T12:26:47;98998.84;;;31.33;24.96
74975;BME280;68459;50.836;19.138;2023-07-09T12:29:54;98993.13;;;31.53;24.72
74975;BME280;68459;50.836;19.138;2023-07-09T12:32:59;98989.91;;;31.79;24.36
74975;BME280;68459;50.836;19.138;2023-07-09T12:36:05;99002.09;;;32.03;24.51
74975;BME280;68459;50.836;19.138;2023-07-09T12:39:10;98991.09;;;32.22;24.04
74975;BME280;68459;50.836;19.138;2023-07-09T12:42:18;98990.09;;;32.30;24.25
74975;BME280;68459;50.836;19.138;2023-07-09T12:45:23;99001.06;;;32.39;23.83
74975;BME280;68459;50.836;19.138;2023-07-09T12:48:29;98998.38;;;32.42;23.46
74975;BME280;68459;50.836;19.138;2023-07-09T12:51:36;98995.94;;;32.56;23.69
74975;BME280;68459;50.836;19.138;2023-07-09T12:54:52;99000.25;;;32.70;23.87
74975;BME280;68459;50.836;19.138;2023-07-09T12:57:59;98995.19;;;32.91;23.49
74975;BME280;68459;50.836;19.138;2023-07-09T13:01:05;98985.59;;;32.88;23.16
74975;BME280;68459;50.836;19.138;2023-07-09T13:04:12;98975.78;;;33.14;22.58
74975;BME280;68459;50.836;19.138;2023-07-09T13:07:29;98989.44;;;33.54;22.60
74975;BME280;68459;50.836;19.138;2023-07-09T13:10:40;99000.34;;;34.40;21.97
74975;BME280;68459;50.836;19.138;2023-07-09T13:13:54;98990.97;;;36.27;20.98
74975;BME280;68459;50.836;19.138;2023-07-09T13:17:06;98991.72;;;39.31;18.59
74975;BME280;68459;50.836;19.138;2023-07-09T13:20:12;98999.31;;;41.32;16.55
74975;BME280;68459;50.836;19.138;2023-07-09T13:23:18;98990.59;;;40.67;18.05
74975;BME280;68459;50.836;19.138;2023-07-09T13:26:22;98995.84;;;42.92;16.61
74975;BME280;68459;50.836;19.138;2023-07-09T13:29:27;99002.53;;;45.51;15.60
74975;BME280;68459;50.836;19.138;2023-07-09T13:32:30;99006.50;;;47.09;13.80
74975;BME280;68459;50.836;19.138;2023-07-09T13:35:36;98993.13;;;44.76;14.72
74975;BME280;68459;50.836;19.138;2023-07-09T13:38:40;98995.19;;;44.23;16.07
74975;BME280;68459;50.836;19.138;2023-07-09T13:41:45;98987.84;;;43.90;15.98
74975;BME280;68459;50.836;19.138;2023-07-09T13:44:50;98986.31;;;42.02;16.88
74975;BME280;68459;50.836;19.138;2023-07-09T13:47:58;98988.09;;;42.19;16.81
74975;BME280;68459;50.836;19.138;2023-07-09T13:51:13;98984.34;;;44.87;14.24
74975;BME280;68459;50.836;19.138;2023-07-09T13:54:20;98997.34;;;47.36;13.25
74975;BME280;68459;50.836;19.138;2023-07-09T13:57:26;98995.34;;;49.28;11.84
74975;BME280;68459;50.836;19.138;2023-07-09T14:00:29;98995.94;;;47.18;13.05
74975;BME280;68459;50.836;19.138;2023-07-09T14:03:34;98980.03;;;44.95;14.71
74975;BME280;68459;50.836;19.138;2023-07-09T14:06:40;98982.72;;;44.69;14.75
74975;BME280;68459;50.836;19.138;2023-07-09T14:09:47;98970.22;;;43.16;15.82
74975;BME280;68459;50.836;19.138;2023-07-09T14:12:50;98972.50;;;41.74;16.41
74975;BME280;68459;50.836;19.138;2023-07-09T14:15:54;98964.41;;;42.06;16.56
74975;BME280;68459;50.836;19.138;2023-07-09T14:18:58;98966.19;;;44.81;14.95
74975;BME280;68459;50.836;19.138;2023-07-09T14:22:20;98972.63;;;47.64;13.11
74975;BME280;68459;50.836;19.138;2023-07-09T14:25:26;98990.56;;;49.61;12.35
74975;BME280;68459;50.836;19.138;2023-07-09T14:28:31;99000.69;;;50.74;11.60
74975;BME280;68459;50.836;19.138;2023-07-09T14:31:36;98997.72;;;51.30;11.23
74975;BME280;68459;50.836;19.138;2023-07-09T14:34:39;98996.91;;;51.98;11.14
74975;BME280;68459;50.836;19.138;2023-07-09T14:37:46;98985.09;;;52.25;11.20
74975;BME280;68459;50.836;19.138;2023-07-09T14:40:52;98992.41;;;52.41;10.57
74975;BME280;68459;50.836;19.138;2023-07-09T14:43:58;98978.63;;;52.65;10.52
74975;BME280;68459;50.836;19.138;2023-07-09T14:47:10;98979.66;;;53.23;10.05
74975;BME280;68459;50.836;19.138;2023-07-09T14:50:16;98990.13;;;53.67;10.24
74975;BME280;68459;50.836;19.138;2023-07-09T14:53:24;98985.00;;;53.56;9.82
74975;BME280;68459;50.836;19.138;2023-07-09T14:56:29;98977.69;;;53.35;10.41
74975;BME280;68459;50.836;19.138;2023-07-09T14:59:33;98973.28;;;53.19;10.33
74975;BME280;68459;50.836;19.138;2023-07-09T15:02:41;98976.09;;;53.34;9.69
74975;BME280;68459;50.836;19.138;2023-07-09T15:05:46;98966.09;;;52.68;10.21
74975;BME280;68459;50.836;19.138;2023-07-09T15:08:55;98963.38;;;51.65;10.64
74975;BME280;68459;50.836;19.138;2023-07-09T15:11:59;98962.06;;;51.81;10.33
74975;BME280;68459;50.836;19.138;2023-07-09T15:15:16;98953.84;;;52.04;9.96
74975;BME280;68459;50.836;19.138;2023-07-09T15:18:23;98951.59;;;52.28;10.10
74975;BME280;68459;50.836;19.138;2023-07-09T15:21:27;98947.53;;;52.20;10.00
74975;BME280;68459;50.836;19.138;2023-07-09T15:24:35;98942.38;;;52.24;9.98
74975;BME280;68459;50.836;19.138;2023-07-09T15:27:40;98943.25;;;52.30;9.68
74975;BME280;68459;50.836;19.138;2023-07-09T15:30:45;98940.69;;;52.32;9.75
74975;BME280;68459;50.836;19.138;2023-07-09T15:33:48;98937.38;;;52.39;9.72
74975;BME280;68459;50.836;19.138;2023-07-09T15:36:52;98939.03;;;51.96;9.80
74975;BME280;68459;50.836;19.138;2023-07-09T15:39:59;98945.81;;;51.63;10.24
74975;BME280;68459;50.836;19.138;2023-07-09T15:43:05;98933.53;;;51.10;10.05
74975;BME280;68459;50.836;19.138;2023-07-09T15:46:19;98929.53;;;50.69;10.22
74975;BME280;68459;50.836;19.138;2023-07-09T15:49:26;98941.41;;;50.28;10.64
74975;BME280;68459;50.836;19.138;2023-07-09T15:52:31;98932.09;;;50.01;10.96
74975;BME280;68459;50.836;19.138;2023-07-09T15:55:37;98928.31;;;49.85;10.54
74975;BME280;68459;50.836;19.138;2023-07-09T15:58:43;98934.41;;;49.87;10.98
74975;BME280;68459;50.836;19.138;2023-07-09T16:01:48;98930.00;;;49.50;10.71
74975;BME280;68459;50.836;19.138;2023-07-09T16:04:51;98926.22;;;49.35;10.96
74975;BME280;68459;50.836;19.138;2023-07-09T16:07:56;98924.59;;;49.15;11.02
74975;BME280;68459;50.836;19.138;2023-07-09T16:11:13;98919.19;;;48.81;11.14
74975;BME280;68459;50.836;19.138;2023-07-09T16:14:22;98918.41;;;48.89;11.23
74975;BME280;68459;50.836;19.138;2023-07-09T16:17:26;98917.00;;;48.85;11.23